Keresley, United Kingdom
Current Conditions -  °F | °C
As of 1:50 AM on Friday 19 Dec 2014 (Local Time) from EGBE Reporting Station
Light Rain Light Rain  
Wind Chill: 54°   Ceiling: 2300
Heat Index: 54°   Visibility: 6mi
Dew Point: 52°   Wind: 17mph
Humidity: 94%   Direction: 220°SW
Pressure: 29.68"   Gusts: 29mph
Location:  52.45°N, 1.53°W
Report Text: EGBE 190150Z 22015G25KT 9000 -RADZ FEW008 SCT015 BKN023 12/11 Q1005
Loading
Personal Weather Stations






























Interactive Weather Map New forecast layout! Learn more

10-Day Weather Forecast

Advertisements
Track Severe Weather on mobile